Time;durP1;ratioP1;P1;durP2;ratioP2;P2;SDS_P1;SDS_P2;PMS_P1;PMS_P2;Temp;Humidity;BMP_temperature;BMP_pressure;BME280_temperature;BME280_humidity;BME280_pressure;Samples;Min_cycle;Max_cycle;Signal;HPM_P1;HPM_P2
2021/07/19 00:00:01;;;;;;;7.20;4.30;;;17.50;99.90;;;;;;4917358;29;20257;-73
2021/07/19 00:02:27;;;;;;;7.70;4.90;;;17.40;99.90;;;;;;4917098;29;20171;-73
2021/07/19 00:04:52;;;;;;;6.80;4.40;;;17.40;99.90;;;;;;4933420;29;20568;-76
2021/07/19 00:07:18;;;;;;;7.40;4.57;;;17.50;99.90;;;;;;4933566;29;20210;-73
2021/07/19 00:09:46;;;;;;;7.67;4.77;;;17.40;99.90;;;;;;4917330;29;20208;-73
2021/07/19 00:12:14;;;;;;;7.07;4.70;;;17.30;99.90;;;;;;4917938;29;20182;-73
2021/07/19 00:14:40;;;;;;;6.13;4.50;;;17.30;99.90;;;;;;4933311;29;20198;-73
2021/07/19 00:17:06;;;;;;;8.10;4.57;;;17.30;99.90;;;;;;4933364;29;20310;-73
2021/07/19 00:19:31;;;;;;;9.57;5.10;;;17.30;99.90;;;;;;4932934;29;20229;-73
2021/07/19 00:21:57;;;;;;;10.03;4.47;;;17.20;99.90;;;;;;4917497;29;20642;-73
2021/07/19 00:24:22;;;;;;;8.77;5.63;;;17.20;99.90;;;;;;4934254;29;20202;-73
2021/07/19 00:26:48;;;;;;;11.73;5.00;;;17.20;99.90;;;;;;4932949;29;20214;-73
2021/07/19 00:29:14;;;;;;;8.93;5.00;;;17.20;99.90;;;;;;4940167;29;20200;-73
2021/07/19 00:31:39;;;;;;;7.33;4.90;;;17.20;99.90;;;;;;4936118;29;20185;-73
2021/07/19 00:34:05;;;;;;;7.27;5.07;;;17.10;99.90;;;;;;4952164;29;20256;-73
2021/07/19 00:36:30;;;;;;;7.50;4.90;;;17.10;99.90;;;;;;4951820;29;20213;-73
2021/07/19 00:38:56;;;;;;;9.50;5.20;;;17.10;99.90;;;;;;4951940;29;20178;-73
2021/07/19 00:41:22;;;;;;;8.27;5.87;;;17.10;99.90;;;;;;4953333;28;20193;-73
2021/07/19 00:43:48;;;;;;;9.23;5.43;;;17.00;99.90;;;;;;4935702;29;20178;-73
2021/07/19 00:46:13;;;;;;;10.70;5.43;;;17.00;99.90;;;;;;4936034;29;20213;-73
2021/07/19 00:48:39;;;;;;;9.07;5.13;;;17.00;99.90;;;;;;4951974;29;20181;-73
2021/07/19 00:51:04;;;;;;;10.40;5.23;;;17.00;99.90;;;;;;4953308;28;20182;-73
2021/07/19 00:53:30;;;;;;;8.17;5.50;;;16.90;99.90;;;;;;4951899;29;20201;-73
2021/07/19 00:55:56;;;;;;;9.13;5.70;;;17.00;99.90;;;;;;4952084;29;20252;-73
2021/07/19 00:58:23;;;;;;;9.40;6.03;;;16.90;99.90;;;;;;4952045;29;20610;-73
2021/07/19 01:00:50;;;;;;;8.20;5.43;;;16.90;99.90;;;;;;4936108;29;20552;-73
2021/07/19 01:03:16;;;;;;;7.93;6.10;;;16.90;99.90;;;;;;4936387;29;20181;-73
2021/07/19 01:05:42;;;;;;;10.97;6.40;;;16.80;99.90;;;;;;4920179;29;20205;-73
2021/07/19 01:08:08;;;;;;;8.60;5.93;;;16.90;99.90;;;;;;4920261;29;20324;-73
2021/07/19 01:10:34;;;;;;;7.40;5.97;;;16.80;99.90;;;;;;4952034;29;20739;-73
2021/07/19 01:12:59;;;;;;;8.80;6.10;;;16.80;99.90;;;;;;4937406;29;20177;-73
2021/07/19 01:15:26;;;;;;;9.10;5.80;;;16.70;99.90;;;;;;4955313;29;20272;-73
2021/07/19 01:17:52;;;;;;;10.00;5.87;;;16.70;99.90;;;;;;4939688;29;20256;-73
2021/07/19 01:20:18;;;;;;;12.80;6.40;;;16.60;99.90;;;;;;4955303;29;20707;-73
2021/07/19 01:23:16;;;;;;;11.87;6.57;;;16.70;99.90;;;;;;4939352;29;20178;-73
2021/07/19 01:26:00;;;;;;;8.00;6.30;;;16.70;99.90;;;;;;4942859;29;20210;-73
2021/07/19 01:28:44;;;;;;;8.27;5.93;;;16.60;99.90;;;;;;4956683;28;20181;-73
2021/07/19 01:31:18;;;;;;;8.10;5.83;;;16.60;99.90;;;;;;4939071;29;20181;-73
2021/07/19 01:33:46;;;;;;;9.00;6.57;;;16.50;99.90;;;;;;4940383;29;20177;-73
2021/07/19 01:36:15;;;;;;;7.27;5.87;;;16.50;99.90;;;;;;4923182;29;20284;-73
2021/07/19 01:38:41;;;;;;;9.73;5.90;;;16.50;99.90;;;;;;4939409;29;20673;-73
2021/07/19 01:41:07;;;;;;;9.07;5.87;;;16.50;99.90;;;;;;4939103;29;20176;-73
2021/07/19 01:43:32;;;;;;;8.33;6.00;;;16.50;99.90;;;;;;4939062;29;20366;-73
2021/07/19 01:45:58;;;;;;;7.27;5.70;;;16.50;99.90;;;;;;4923063;29;20276;-73
2021/07/19 01:48:23;;;;;;;8.20;5.03;;;16.40;99.90;;;;;;4955962;28;20642;-73
2021/07/19 01:50:49;;;;;;;8.27;5.40;;;16.40;99.90;;;;;;4938597;29;20736;-73
2021/07/19 01:53:15;;;;;;;7.77;5.37;;;16.40;99.90;;;;;;4919595;29;20206;-73
2021/07/19 01:55:41;;;;;;;10.37;5.57;;;16.30;99.90;;;;;;4935531;29;20216;-73
2021/07/19 01:58:06;;;;;;;8.37;5.40;;;16.20;99.90;;;;;;4935683;29;20249;-73
2021/07/19 02:00:32;;;;;;;9.30;6.10;;;16.30;99.90;;;;;;4935065;29;20253;-73
2021/07/19 02:02:57;;;;;;;8.07;5.33;;;16.20;99.90;;;;;;4935220;29;20535;-73
2021/07/19 02:05:24;;;;;;;9.00;5.43;;;16.20;99.90;;;;;;4935241;29;20225;-73
2021/07/19 02:07:52;;;;;;;14.03;6.60;;;16.20;99.90;;;;;;4934770;29;20174;-73
2021/07/19 02:10:17;;;;;;;9.20;5.97;;;16.10;99.90;;;;;;4935121;29;20175;-73
2021/07/19 02:12:44;;;;;;;8.00;6.13;;;16.10;99.90;;;;;;4934903;29;20174;-73
2021/07/19 02:15:13;;;;;;;8.67;5.70;;;16.10;99.90;;;;;;4934983;29;20622;-73
2021/07/19 02:17:39;;;;;;;9.30;5.50;;;15.90;99.90;;;;;;4935027;29;20282;-73
2021/07/19 02:20:09;;;;;;;8.13;5.43;;;15.90;99.90;;;;;;4934911;29;20634;-73
2021/07/19 02:22:35;;;;;;;9.40;5.97;;;15.90;99.90;;;;;;4934746;29;20745;-73
2021/07/19 02:25:01;;;;;;;9.63;6.43;;;15.90;99.90;;;;;;4918752;29;20253;-73
2021/07/19 02:27:27;;;;;;;9.07;5.67;;;15.90;99.90;;;;;;4935030;29;20561;-73
2021/07/19 02:29:52;;;;;;;8.53;6.13;;;15.70;99.90;;;;;;4934767;29;20210;-73
2021/07/19 02:32:18;;;;;;;8.30;6.13;;;15.70;99.90;;;;;;4934563;29;20186;-73
2021/07/19 02:34:44;;;;;;;9.53;5.57;;;15.70;99.90;;;;;;4934725;29;20194;-73
2021/07/19 02:37:09;;;;;;;11.27;5.70;;;15.60;99.90;;;;;;4934656;29;20361;-73
2021/07/19 02:39:37;;;;;;;9.90;5.90;;;15.60;99.90;;;;;;4934640;29;20297;-73
2021/07/19 02:42:03;;;;;;;11.40;5.97;;;15.60;99.90;;;;;;4934665;29;20188;-73
2021/07/19 02:44:29;;;;;;;9.63;6.40;;;15.60;99.90;;;;;;4934465;29;20202;-73
2021/07/19 02:46:54;;;;;;;8.23;6.13;;;15.60;99.90;;;;;;4934174;29;20269;-73
2021/07/19 02:49:20;;;;;;;9.30;6.50;;;15.60;99.90;;;;;;4934492;29;20186;-73
2021/07/19 02:51:45;;;;;;;11.03;6.77;;;15.60;99.90;;;;;;4934574;29;20279;-73
2021/07/19 02:54:11;;;;;;;10.73;6.43;;;15.60;99.90;;;;;;4934464;29;20196;-73
2021/07/19 02:56:37;;;;;;;9.43;6.27;;;15.50;99.90;;;;;;4934194;29;20213;-73
2021/07/19 02:59:03;;;;;;;9.10;6.33;;;15.50;99.90;;;;;;4950073;29;20213;-73
2021/07/19 03:01:28;;;;;;;9.93;6.67;;;15.50;99.90;;;;;;4934273;29;20194;-73
2021/07/19 03:03:55;;;;;;;9.10;5.97;;;15.40;99.90;;;;;;4934454;29;20261;-73
2021/07/19 03:06:23;;;;;;;9.23;6.37;;;15.40;99.90;;;;;;4934289;29;20208;-73
2021/07/19 03:08:49;;;;;;;9.30;6.33;;;15.40;99.90;;;;;;4934078;29;20178;-73
2021/07/19 03:11:36;;;;;;;9.90;6.80;;;15.30;99.90;;;;;;4934199;29;20181;-73
2021/07/19 03:14:02;;;;;;;11.80;6.93;;;15.30;99.90;;;;;;4934899;29;20736;-73
2021/07/19 03:16:27;;;;;;;12.60;7.50;;;15.30;99.90;;;;;;4933978;29;20292;-73
2021/07/19 03:18:54;;;;;;;9.80;6.90;;;15.40;99.90;;;;;;4933734;29;20225;-73
2021/07/19 03:21:19;;;;;;;11.57;6.70;;;15.30;99.90;;;;;;4934016;29;20174;-73
2021/07/19 03:23:45;;;;;;;9.83;7.03;;;15.30;99.90;;;;;;4934015;29;20529;-73
2021/07/19 03:26:10;;;;;;;9.70;7.00;;;15.30;99.90;;;;;;4934046;29;20206;-73
2021/07/19 03:28:36;;;;;;;11.37;6.97;;;15.30;99.90;;;;;;4933429;29;20186;-73
2021/07/19 03:31:02;;;;;;;11.17;7.47;;;15.30;99.90;;;;;;4938912;29;20185;-73
2021/07/19 03:33:27;;;;;;;12.30;7.80;;;15.30;99.90;;;;;;4936983;29;20237;-73
2021/07/19 03:35:54;;;;;;;9.63;7.17;;;15.30;99.90;;;;;;4935628;29;20709;-73
2021/07/19 03:38:19;;;;;;;9.40;7.13;;;15.30;99.90;;;;;;4937080;29;20173;-73
2021/07/19 03:40:45;;;;;;;10.63;6.90;;;15.20;99.90;;;;;;4936839;29;20174;-73
2021/07/19 03:43:10;;;;;;;12.07;7.73;;;15.20;99.90;;;;;;4936822;29;20190;-73
2021/07/19 03:45:36;;;;;;;11.00;7.67;;;15.20;99.90;;;;;;4952831;29;20202;-73
2021/07/19 03:48:02;;;;;;;11.80;7.63;;;15.20;99.90;;;;;;4936872;29;20178;-73
2021/07/19 03:50:28;;;;;;;10.90;7.57;;;15.20;99.90;;;;;;4936562;29;20681;-73
2021/07/19 03:52:54;;;;;;;11.07;7.50;;;15.20;99.90;;;;;;4936958;29;20178;-73
2021/07/19 03:55:19;;;;;;;11.07;7.37;;;15.20;99.90;;;;;;4920922;29;20205;-73
2021/07/19 03:57:45;;;;;;;10.47;7.57;;;15.20;99.90;;;;;;4925431;29;20280;-73
2021/07/19 04:00:15;;;;;;;13.37;8.13;;;15.20;99.90;;;;;;4917581;29;20557;-73
2021/07/19 04:02:48;;;;;;;12.00;7.93;;;15.30;99.90;;;;;;4918019;29;20568;-73
2021/07/19 04:05:15;;;;;;;12.37;8.37;;;15.30;99.90;;;;;;4918354;29;20690;-73
2021/07/19 04:07:44;;;;;;;12.00;8.10;;;15.30;99.90;;;;;;4933639;29;20193;-73
2021/07/19 04:10:11;;;;;;;10.90;7.60;;;15.30;99.90;;;;;;4917845;29;20178;-73
2021/07/19 04:12:39;;;;;;;10.90;7.57;;;15.20;99.90;;;;;;4902296;29;20190;-73
2021/07/19 04:15:05;;;;;;;12.43;8.93;;;15.30;99.90;;;;;;4902121;29;20300;-73
2021/07/19 04:17:31;;;;;;;14.03;8.53;;;15.20;99.90;;;;;;4917569;29;20287;-73
2021/07/19 04:19:58;;;;;;;12.60;8.40;;;15.30;99.90;;;;;;4934439;29;20182;-73
2021/07/19 04:22:24;;;;;;;14.13;9.00;;;15.20;99.90;;;;;;4933422;29;20182;-73
2021/07/19 04:24:50;;;;;;;13.07;9.50;;;15.30;99.90;;;;;;4917611;29;20194;-73
2021/07/19 04:27:15;;;;;;;12.43;9.30;;;15.30;99.90;;;;;;4933373;29;20701;-73
2021/07/19 04:29:41;;;;;;;14.90;8.83;;;15.40;99.90;;;;;;4917383;29;20265;-74
2021/07/19 04:32:07;;;;;;;15.90;8.67;;;15.40;99.90;;;;;;4933508;29;20179;-74
2021/07/19 04:34:33;;;;;;;13.10;9.33;;;15.40;99.90;;;;;;4901655;29;20229;-73
2021/07/19 04:37:00;;;;;;;13.77;9.40;;;15.50;99.90;;;;;;4901557;29;20269;-74
2021/07/19 04:39:26;;;;;;;12.90;9.40;;;15.60;99.90;;;;;;4901462;29;20533;-76
2021/07/19 04:41:51;;;;;;;13.13;9.33;;;15.60;99.90;;;;;;4933254;29;20299;-73
2021/07/19 04:44:20;;;;;;;15.47;9.70;;;15.60;99.90;;;;;;4933042;29;20206;-74
2021/07/19 04:46:45;;;;;;;12.70;9.70;;;15.70;99.90;;;;;;4901790;29;20186;-73
2021/07/19 04:49:11;;;;;;;14.00;9.20;;;15.70;99.90;;;;;;4937709;29;20182;-73
2021/07/19 04:51:36;;;;;;;15.13;10.03;;;15.80;99.90;;;;;;4921009;29;20241;-73
2021/07/19 04:54:03;;;;;;;12.30;9.57;;;15.70;99.90;;;;;;4938250;29;20240;-73
2021/07/19 04:56:28;;;;;;;13.80;9.80;;;15.80;99.90;;;;;;4939863;29;20201;-73
2021/07/19 04:58:54;;;;;;;15.53;10.20;;;15.90;99.90;;;;;;4946605;29;20186;-72
2021/07/19 05:01:19;;;;;;;12.33;10.13;;;15.90;99.90;;;;;;4943779;29;20182;-72
2021/07/19 05:03:46;;;;;;;15.33;11.27;;;16.10;99.90;;;;;;4937015;29;20197;-72
2021/07/19 05:06:11;;;;;;;14.20;10.23;;;16.20;99.90;;;;;;4939622;29;20198;-72
2021/07/19 05:08:37;;;;;;;13.70;9.60;;;16.20;99.90;;;;;;4931268;29;20190;-72
2021/07/19 05:11:03;;;;;;;14.23;10.00;;;16.20;99.90;;;;;;4929591;29;20189;-72
2021/07/19 05:13:28;;;;;;;17.63;10.20;;;16.40;99.90;;;;;;4924429;29;20221;-72
2021/07/19 05:15:54;;;;;;;12.90;9.90;;;16.40;99.90;;;;;;4920328;29;20250;-72
2021/07/19 05:18:19;;;;;;;14.13;9.93;;;16.40;99.90;;;;;;4936520;29;20185;-72
2021/07/19 05:20:45;;;;;;;12.73;9.80;;;16.40;99.90;;;;;;4945937;29;20178;-72
2021/07/19 05:23:12;;;;;;;13.90;9.87;;;16.60;99.90;;;;;;4921438;29;20209;-72
2021/07/19 05:25:37;;;;;;;14.57;10.10;;;16.40;99.90;;;;;;4921933;29;20255;-72
2021/07/19 05:28:13;;;;;;;15.43;10.30;;;16.40;99.90;;;;;;4944264;29;20277;-72
2021/07/19 05:30:46;;;;;;;15.27;9.90;;;16.60;99.90;;;;;;4947605;29;20169;-72
2021/07/19 05:33:12;;;;;;;14.47;9.90;;;16.50;99.90;;;;;;4942378;29;20182;-72
2021/07/19 05:35:38;;;;;;;14.77;9.37;;;16.60;99.90;;;;;;4935473;29;20213;-72
2021/07/19 05:38:04;;;;;;;15.40;10.37;;;16.50;99.90;;;;;;4954641;29;20312;-72
2021/07/19 05:40:31;;;;;;;15.73;10.03;;;16.70;99.90;;;;;;4926968;29;20264;-72
2021/07/19 05:42:57;;;;;;;18.43;10.43;;;16.70;99.90;;;;;;4939414;29;20173;-72
2021/07/19 05:45:23;;;;;;;14.47;10.03;;;16.80;99.90;;;;;;4937931;29;20200;-72
2021/07/19 05:47:48;;;;;;;16.47;10.50;;;16.80;99.90;;;;;;4920056;29;20186;-72
2021/07/19 05:50:14;;;;;;;14.23;9.80;;;17.10;99.90;;;;;;4951450;29;20665;-72
2021/07/19 05:52:40;;;;;;;13.70;9.90;;;17.20;99.90;;;;;;4953831;29;20636;-72
2021/07/19 05:55:06;;;;;;;14.10;10.10;;;17.20;99.90;;;;;;4940987;29;20256;-72
2021/07/19 05:57:31;;;;;;;14.10;8.70;;;17.40;99.90;;;;;;4949434;28;20213;-72
2021/07/19 05:59:57;;;;;;;15.40;9.43;;;17.60;99.90;;;;;;4924844;29;20712;-72
2021/07/19 06:02:26;;;;;;;16.23;9.53;;;17.50;99.90;;;;;;4953329;28;20272;-72
2021/07/19 06:04:52;;;;;;;10.97;7.73;;;17.70;99.90;;;;;;4943467;29;20685;-72
2021/07/19 06:07:17;;;;;;;14.73;8.40;;;17.60;99.90;;;;;;4937188;29;20236;-72
2021/07/19 06:09:43;;;;;;;14.43;8.10;;;17.60;99.90;;;;;;4939982;29;20182;-72
2021/07/19 06:12:10;;;;;;;13.63;7.80;;;17.50;99.90;;;;;;4954158;29;20190;-72
2021/07/19 06:14:36;;;;;;;13.07;7.60;;;17.60;99.90;;;;;;4943715;29;20673;-72
2021/07/19 06:17:02;;;;;;;14.47;7.70;;;17.50;99.90;;;;;;4959923;28;20256;-72
2021/07/19 06:19:27;;;;;;;13.00;6.80;;;17.50;99.90;;;;;;4949371;29;20194;-72
2021/07/19 06:21:53;;;;;;;15.73;7.20;;;17.50;99.90;;;;;;4946545;28;20179;-72
2021/07/19 06:24:18;;;;;;;15.70;7.40;;;17.50;99.90;;;;;;4957221;28;20201;-72
2021/07/19 06:26:44;;;;;;;12.90;7.57;;;17.60;99.90;;;;;;4936515;29;20178;-72
2021/07/19 06:29:09;;;;;;;12.80;6.37;;;17.60;99.90;;;;;;4960564;28;20527;-72
2021/07/19 06:31:35;;;;;;;11.90;6.70;;;17.60;99.90;;;;;;4969064;28;20192;-72
2021/07/19 06:34:00;;;;;;;13.90;6.63;;;17.80;99.90;;;;;;4945346;29;20186;-72
2021/07/19 06:36:26;;;;;;;11.17;6.63;;;17.70;99.90;;;;;;4951518;29;20217;-72
2021/07/19 06:38:52;;;;;;;9.80;5.83;;;17.80;99.90;;;;;;4941732;29;20324;-72
2021/07/19 06:41:17;;;;;;;10.33;5.73;;;17.80;99.90;;;;;;4953891;29;20288;-72
2021/07/19 06:43:43;;;;;;;10.00;5.53;;;17.80;99.90;;;;;;4957477;28;20209;-72
2021/07/19 06:46:08;;;;;;;12.77;6.00;;;17.80;99.90;;;;;;4950898;29;20209;-72
2021/07/19 06:48:34;;;;;;;10.27;6.20;;;17.80;99.90;;;;;;4952247;29;20193;-72
2021/07/19 06:51:00;;;;;;;11.53;5.40;;;17.90;99.90;;;;;;4939897;29;20178;-72
2021/07/19 06:53:27;;;;;;;10.43;5.70;;;17.90;99.90;;;;;;4927314;29;20600;-72
2021/07/19 06:55:52;;;;;;;11.73;5.70;;;17.90;99.90;;;;;;4921043;29;20221;-72
2021/07/19 06:58:18;;;;;;;15.37;5.73;;;17.90;99.90;;;;;;4934036;29;20178;-72
2021/07/19 07:00:43;;;;;;;10.73;5.90;;;17.90;99.90;;;;;;4902776;29;20285;-72
2021/07/19 07:03:09;;;;;;;13.37;6.33;;;17.90;99.90;;;;;;4934371;29;20714;-72
2021/07/19 07:05:34;;;;;;;8.40;5.77;;;17.90;99.90;;;;;;4918608;29;20653;-72
2021/07/19 07:08:00;;;;;;;12.93;6.13;;;17.90;99.90;;;;;;4934164;29;20594;-72
2021/07/19 07:10:26;;;;;;;12.40;6.17;;;17.90;99.90;;;;;;4918770;29;20725;-75
2021/07/19 07:12:51;;;;;;;11.07;5.40;;;17.80;99.90;;;;;;4918426;29;20174;-75
2021/07/19 07:15:17;;;;;;;10.67;6.00;;;17.90;99.90;;;;;;4918658;29;20564;-74
2021/07/19 07:17:42;;;;;;;9.97;5.63;;;18.00;99.90;;;;;;4933934;29;20206;-72
2021/07/19 07:20:10;;;;;;;11.30;5.63;;;17.90;99.90;;;;;;4933909;29;20182;-73
2021/07/19 07:22:35;;;;;;;10.27;5.20;;;18.00;99.90;;;;;;4918322;29;20190;-73
2021/07/19 07:25:01;;;;;;;9.97;5.60;;;18.10;99.90;;;;;;4934062;29;20198;-73
2021/07/19 07:27:26;;;;;;;11.67;5.83;;;18.00;99.90;;;;;;4935330;29;20189;-72
2021/07/19 07:29:52;;;;;;;9.90;5.57;;;18.00;99.90;;;;;;4917760;29;20182;-73
2021/07/19 07:32:17;;;;;;;8.50;5.13;;;17.90;99.90;;;;;;4918114;29;20186;-73
2021/07/19 07:34:44;;;;;;;11.10;5.63;;;17.90;99.90;;;;;;4918072;29;20209;-73
2021/07/19 07:37:12;;;;;;;10.87;5.97;;;17.90;99.90;;;;;;4934849;28;20207;-73
2021/07/19 07:39:39;;;;;;;12.47;5.77;;;17.80;99.90;;;;;;4934075;29;20178;-75
2021/07/19 07:42:04;;;;;;;9.30;5.63;;;17.80;99.90;;;;;;4918337;29;20202;-76
2021/07/19 07:44:30;;;;;;;11.00;5.83;;;17.80;99.90;;;;;;4918257;29;20241;-74
2021/07/19 07:46:56;;;;;;;13.97;6.23;;;17.80;99.90;;;;;;4920366;29;20282;-71
2021/07/19 07:49:21;;;;;;;10.40;6.13;;;17.90;99.90;;;;;;4936373;29;20203;-73
2021/07/19 07:51:47;;;;;;;15.80;6.93;;;17.90;99.90;;;;;;4918401;29;20232;-73
2021/07/19 07:54:13;;;;;;;11.30;6.07;;;17.90;99.90;;;;;;4936746;29;20258;-73
2021/07/19 07:56:38;;;;;;;13.43;6.20;;;18.00;99.90;;;;;;4936836;29;20196;-75
2021/07/19 07:59:04;;;;;;;11.77;6.13;;;18.10;99.90;;;;;;4933467;29;20330;-75
2021/07/19 08:01:29;;;;;;;14.23;6.30;;;18.30;99.90;;;;;;4933559;29;20181;-74
2021/07/19 08:03:55;;;;;;;10.57;6.20;;;18.50;99.90;;;;;;4933820;29;20178;-74
2021/07/19 08:06:20;;;;;;;10.47;6.27;;;18.70;99.90;;;;;;4933541;29;20620;-75
2021/07/19 08:08:46;;;;;;;11.17;6.17;;;18.80;99.90;;;;;;4940236;29;20657;-74
2021/07/19 08:11:11;;;;;;;11.97;5.90;;;18.90;99.90;;;;;;4937042;29;20186;-75
2021/07/19 08:13:37;;;;;;;12.67;6.67;;;19.00;99.90;;;;;;4937053;29;20216;-75
2021/07/19 08:16:03;;;;;;;11.53;5.77;;;19.10;99.90;;;;;;4953864;28;20249;-75
2021/07/19 08:18:28;;;;;;;11.13;5.73;;;19.10;99.90;;;;;;4936922;29;20181;-75
2021/07/19 08:20:54;;;;;;;11.60;5.60;;;19.20;99.90;;;;;;4952606;28;20174;-75
2021/07/19 08:23:19;;;;;;;10.50;5.73;;;19.20;99.90;;;;;;4956481;28;20229;-75
2021/07/19 08:25:45;;;;;;;9.80;6.20;;;19.20;99.90;;;;;;4956870;29;20197;-75
2021/07/19 08:28:12;;;;;;;13.90;5.63;;;19.30;99.90;;;;;;4956835;29;20177;-75
2021/07/19 08:30:37;;;;;;;12.07;5.97;;;19.40;99.90;;;;;;4940614;29;20637;-74
2021/07/19 08:33:03;;;;;;;11.80;6.27;;;19.50;99.90;;;;;;4972485;28;20223;-75
2021/07/19 08:35:29;;;;;;;9.10;6.10;;;19.50;99.90;;;;;;4940456;29;20209;-75
2021/07/19 08:37:57;;;;;;;10.80;6.37;;;19.50;99.90;;;;;;4956162;29;20204;-75
2021/07/19 08:40:23;;;;;;;10.07;6.07;;;19.60;99.90;;;;;;4925276;29;20182;-74
2021/07/19 08:42:48;;;;;;;11.90;6.33;;;19.70;99.90;;;;;;4927538;29;20175;-74
2021/07/19 08:45:14;;;;;;;10.13;6.03;;;19.80;99.90;;;;;;4929354;29;20198;-74
2021/07/19 08:47:44;;;;;;;13.03;6.70;;;19.90;99.90;;;;;;4935091;29;20194;-74
2021/07/19 08:50:10;;;;;;;10.03;6.23;;;19.90;99.90;;;;;;4934848;29;20174;-75
2021/07/19 08:52:36;;;;;;;11.90;6.53;;;19.90;99.90;;;;;;4955643;29;20668;-72
2021/07/19 08:55:07;;;;;;;10.73;6.30;;;19.90;99.90;;;;;;4924333;29;20198;-73
2021/07/19 08:57:32;;;;;;;10.77;6.57;;;20.00;99.90;;;;;;4939317;29;20226;-73
2021/07/19 09:00:00;;;;;;;9.57;6.03;;;20.10;99.90;;;;;;4940266;29;20551;-71
2021/07/19 09:02:26;;;;;;;10.07;6.50;;;20.20;99.90;;;;;;4956758;29;20622;-72
2021/07/19 09:04:51;;;;;;;14.43;6.73;;;20.30;99.90;;;;;;4924778;29;20205;-71
2021/07/19 09:07:17;;;;;;;12.57;6.40;;;20.50;99.90;;;;;;4941135;29;20233;-71
2021/07/19 09:09:43;;;;;;;11.27;6.80;;;20.50;99.90;;;;;;4940541;29;20213;-71
2021/07/19 09:12:09;;;;;;;11.73;6.90;;;20.20;99.90;;;;;;4939851;29;20244;-71
2021/07/19 09:14:34;;;;;;;12.97;6.87;;;20.00;99.90;;;;;;4924127;29;20549;-72
2021/07/19 09:17:00;;;;;;;11.03;7.00;;;19.80;99.90;;;;;;4939989;29;20209;-71
2021/07/19 09:19:26;;;;;;;12.77;6.63;;;19.60;99.90;;;;;;4940055;29;20177;-71
2021/07/19 09:21:59;;;;;;;12.00;6.30;;;19.50;99.90;;;;;;4924565;29;20209;-71
2021/07/19 09:24:28;;;;;;;12.20;6.53;;;19.50;99.90;;;;;;4924873;29;20587;-71
2021/07/19 09:26:54;;;;;;;12.07;6.77;;;19.40;99.90;;;;;;4924495;29;20217;-71
2021/07/19 09:29:22;;;;;;;12.90;6.23;;;19.40;99.90;;;;;;4924316;29;20657;-71
2021/07/19 09:31:53;;;;;;;13.90;6.63;;;19.40;99.90;;;;;;4925217;29;20200;-71
2021/07/19 09:34:20;;;;;;;11.83;6.63;;;19.30;99.90;;;;;;4940312;29;20677;-71
2021/07/19 09:36:58;;;;;;;10.93;6.60;;;19.30;99.90;;;;;;4924433;29;20216;-72
2021/07/19 09:39:31;;;;;;;13.27;7.13;;;19.40;99.90;;;;;;4957245;28;20772;-72
2021/07/19 09:42:13;;;;;;;12.60;6.87;;;19.50;99.90;;;;;;4956044;29;20194;-72
2021/07/19 09:44:39;;;;;;;10.17;6.40;;;19.50;99.90;;;;;;4925553;29;20288;-72
2021/07/19 09:47:06;;;;;;;12.63;6.93;;;19.50;99.90;;;;;;4924723;29;20214;-71
2021/07/19 09:49:32;;;;;;;12.33;7.10;;;19.80;99.90;;;;;;4939960;29;20553;-72
2021/07/19 09:52:08;;;;;;;12.33;7.17;;;20.00;99.90;;;;;;4940489;29;20174;-72
2021/07/19 09:54:44;;;;;;;17.47;7.87;;;20.00;99.90;;;;;;4926118;29;20241;-71
2021/07/19 09:57:10;;;;;;;11.73;7.07;;;19.90;99.90;;;;;;4924318;29;20209;-72
2021/07/19 09:59:37;;;;;;;9.27;7.03;;;20.00;99.90;;;;;;4924093;29;20178;-72
2021/07/19 10:02:03;;;;;;;11.27;7.20;;;20.00;99.90;;;;;;4924093;29;20178;-71
2021/07/19 10:04:28;;;;;;;9.57;6.87;;;20.30;99.90;;;;;;4955663;29;20200;-71
2021/07/19 10:06:55;;;;;;;10.60;7.50;;;20.30;99.90;;;;;;4924437;29;20178;-71
2021/07/19 10:09:20;;;;;;;13.20;7.60;;;20.40;99.90;;;;;;4940218;29;20181;-71
2021/07/19 10:11:54;;;;;;;11.03;7.20;;;20.40;99.90;;;;;;4940423;29;20232;-72
2021/07/19 10:14:30;;;;;;;11.63;7.37;;;20.30;99.90;;;;;;4924636;29;20201;-72
2021/07/19 10:17:00;;;;;;;11.40;7.03;;;20.30;99.90;;;;;;4939604;29;20205;-72
2021/07/19 10:19:26;;;;;;;13.07;7.20;;;20.30;99.90;;;;;;4939214;29;20203;-71
2021/07/19 10:21:51;;;;;;;9.03;6.60;;;20.30;99.90;;;;;;4939541;29;20259;-71
2021/07/19 10:24:17;;;;;;;12.33;6.77;;;20.20;99.90;;;;;;4939144;29;20174;-72
2021/07/19 10:26:44;;;;;;;9.13;6.67;;;20.20;99.90;;;;;;4938774;29;20265;-72
2021/07/19 10:29:10;;;;;;;8.60;6.70;;;20.10;99.90;;;;;;4938381;29;20170;-71
2021/07/19 10:31:35;;;;;;;9.13;6.80;;;20.00;99.90;;;;;;4922566;29;20708;-71
2021/07/19 10:34:02;;;;;;;10.30;6.80;;;20.00;99.90;;;;;;4938235;29;20209;-71
2021/07/19 10:36:44;;;;;;;13.20;7.17;;;20.00;99.90;;;;;;4938154;29;20213;-71
2021/07/19 10:39:23;;;;;;;10.53;6.73;;;20.00;99.90;;;;;;4954460;29;20177;-71
2021/07/19 10:42:03;;;;;;;12.97;6.87;;;20.10;99.90;;;;;;4954267;29;20169;-71
2021/07/19 10:44:33;;;;;;;10.47;6.83;;;20.10;99.90;;;;;;4922857;28;20198;-72
2021/07/19 10:47:10;;;;;;;9.87;6.87;;;19.90;99.90;;;;;;4938975;29;20385;-72
2021/07/19 10:49:41;;;;;;;13.07;7.27;;;19.90;99.90;;;;;;4938436;29;20641;-72
2021/07/19 10:52:12;;;;;;;11.20;7.10;;;19.80;99.90;;;;;;4939241;29;20280;-72
2021/07/19 10:54:50;;;;;;;9.83;6.80;;;19.90;99.90;;;;;;4938485;29;20201;-72
2021/07/19 10:57:18;;;;;;;13.03;7.53;;;20.10;99.90;;;;;;4938555;29;20205;-72
2021/07/19 10:59:45;;;;;;;10.97;6.93;;;20.30;99.90;;;;;;4938357;29;20186;-72
2021/07/19 11:02:24;;;;;;;8.90;6.73;;;20.60;99.90;;;;;;4938188;29;20521;-71
2021/07/19 11:04:50;;;;;;;12.43;7.50;;;21.00;99.90;;;;;;4939504;29;20240;-71
2021/07/19 11:07:15;;;;;;;10.70;6.50;;;20.90;99.90;;;;;;4954049;29;20182;-71
2021/07/19 11:09:41;;;;;;;11.93;7.00;;;21.00;99.90;;;;;;4937959;29;20181;-72
2021/07/19 11:12:16;;;;;;;10.93;7.13;;;20.90;99.90;;;;;;4953957;29;20177;-72
2021/07/19 11:14:43;;;;;;;10.00;6.50;;;20.90;99.90;;;;;;4953975;29;20339;-72
2021/07/19 11:17:09;;;;;;;11.70;6.87;;;20.90;99.90;;;;;;4953700;29;20206;-72
2021/07/19 11:19:39;;;;;;;10.57;6.53;;;20.70;99.90;;;;;;4953622;29;20174;-73
2021/07/19 11:22:06;;;;;;;9.20;5.67;;;20.80;99.90;;;;;;4938252;29;20178;-72
2021/07/19 11:24:42;;;;;;;9.00;6.50;;;20.90;99.90;;;;;;4922100;29;20204;-72
2021/07/19 11:27:07;;;;;;;10.63;6.33;;;21.10;99.90;;;;;;4938370;29;20178;-72
2021/07/19 11:29:37;;;;;;;8.73;5.73;;;21.20;99.90;;;;;;4930686;23;20664;-71
2021/07/19 11:32:04;;;;;;;7.00;5.43;;;21.30;99.90;;;;;;4919204;29;20257;-72
2021/07/19 11:34:30;;;;;;;8.63;5.60;;;21.20;99.90;;;;;;4934645;29;20178;-72
2021/07/19 11:36:56;;;;;;;7.23;5.10;;;21.20;99.90;;;;;;4934621;29;20206;-72
2021/07/19 11:39:21;;;;;;;7.50;5.07;;;21.30;99.90;;;;;;4918332;29;20257;-72
2021/07/19 11:42:00;;;;;;;8.63;4.90;;;21.10;99.90;;;;;;4934534;29;20247;-72
2021/07/19 11:44:27;;;;;;;7.00;5.13;;;21.00;99.90;;;;;;4934306;29;20184;-72
2021/07/19 11:46:52;;;;;;;9.23;5.97;;;21.20;99.90;;;;;;4918771;29;20716;-72
2021/07/19 11:49:22;;;;;;;9.30;5.80;;;21.20;99.90;;;;;;4918365;29;20201;-72
2021/07/19 11:51:47;;;;;;;8.93;5.57;;;21.10;99.90;;;;;;4934475;29;20281;-72
2021/07/19 11:54:14;;;;;;;10.97;5.70;;;21.00;99.90;;;;;;4934426;29;20669;-72
2021/07/19 11:56:51;;;;;;;8.43;5.67;;;20.90;99.90;;;;;;4918068;29;20581;-72
2021/07/19 11:59:25;;;;;;;10.20;6.30;;;20.90;99.90;;;;;;4918719;29;20190;-72
2021/07/19 12:01:57;;;;;;;9.97;6.10;;;20.90;99.90;;;;;;4902208;29;20277;-73
2021/07/19 12:04:23;;;;;;;8.57;6.00;;;20.80;99.90;;;;;;4917816;29;20182;-72
2021/07/19 12:06:52;;;;;;;9.23;5.97;;;20.80;99.90;;;;;;4917900;29;20237;-72
2021/07/19 12:09:18;;;;;;;10.03;5.83;;;20.70;99.90;;;;;;4902118;29;20293;-72
2021/07/19 12:11:51;;;;;;;7.77;5.80;;;20.60;99.90;;;;;;4918463;29;20298;-72
2021/07/19 12:14:16;;;;;;;9.63;6.40;;;20.50;99.90;;;;;;4918876;29;20194;-72
2021/07/19 12:16:42;;;;;;;9.90;5.93;;;20.50;99.90;;;;;;4918554;29;20206;-72
2021/07/19 12:19:08;;;;;;;10.90;5.97;;;20.30;99.90;;;;;;4918019;29;20203;-72
2021/07/19 12:21:43;;;;;;;8.93;5.33;;;20.40;99.90;;;;;;4902884;29;20654;-72
2021/07/19 12:24:09;;;;;;;8.60;6.30;;;20.20;99.90;;;;;;4918977;29;20596;-72
2021/07/19 12:26:43;;;;;;;9.63;6.10;;;20.10;99.90;;;;;;4934276;29;20546;-72
2021/07/19 12:29:15;;;;;;;10.97;6.63;;;20.00;99.90;;;;;;4935190;29;20337;-72
2021/07/19 12:31:44;;;;;;;7.90;5.83;;;19.90;99.90;;;;;;4933929;29;20245;-72
2021/07/19 12:34:20;;;;;;;7.73;6.17;;;19.80;99.90;;;;;;4934376;29;20178;-72
2021/07/19 12:36:48;;;;;;;8.07;6.00;;;20.00;99.90;;;;;;4918136;29;20224;-72
2021/07/19 12:39:15;;;;;;;9.10;6.13;;;19.90;99.90;;;;;;4917469;29;20288;-72